createdAt,value
2018-01-30T00:01:07.055Z,100811.08
2018-01-30T00:03:35.474Z,100817.14
2018-01-30T00:06:03.925Z,100819.42
2018-01-30T00:08:32.316Z,100832.16
2018-01-30T00:11:00.710Z,100822.64
2018-01-30T00:13:29.175Z,100821.70
2018-01-30T00:15:57.585Z,100820.86
2018-01-30T00:18:25.983Z,100829.88
2018-01-30T00:20:54.684Z,100835.98
2018-01-30T00:23:23.104Z,100836.36
2018-01-30T00:25:51.514Z,100835.84
2018-01-30T00:28:19.963Z,100841.71
2018-01-30T00:30:48.411Z,100830.98
2018-01-30T00:33:16.816Z,100836.41
2018-01-30T00:35:45.277Z,100841.03
2018-01-30T00:38:13.709Z,100849.14
2018-01-30T00:40:42.118Z,100851.38
2018-01-30T00:43:10.571Z,100850.84
2018-01-30T00:45:38.976Z,100853.23
2018-01-30T00:48:07.383Z,100857.75
2018-01-30T00:50:35.819Z,100852.11
2018-01-30T00:53:04.231Z,100864.20
2018-01-30T00:55:32.646Z,100865.38
2018-01-30T00:58:01.086Z,100874.89
2018-01-30T01:00:29.509Z,100880.73
2018-01-30T01:02:57.914Z,100873.94
2018-01-30T01:05:26.385Z,100881.78
2018-01-30T01:07:54.773Z,100882.96
2018-01-30T01:10:23.171Z,100891.83
2018-01-30T01:12:51.590Z,100893.45
2018-01-30T01:15:20.004Z,100905.77
2018-01-30T01:17:48.442Z,100913.72
2018-01-30T01:20:16.905Z,100922.89
2018-01-30T01:22:45.316Z,100922.33
2018-01-30T01:25:13.762Z,100930.50
2018-01-30T01:27:42.235Z,100930.32
2018-01-30T01:30:10.660Z,100933.05
2018-01-30T01:32:39.070Z,100937.90
2018-01-30T01:35:07.551Z,100949.42
2018-01-30T01:37:35.945Z,100946.56
2018-01-30T01:40:04.672Z,100939.17
2018-01-30T01:42:33.102Z,100951.77
2018-01-30T01:45:01.531Z,100948.07
2018-01-30T01:47:29.949Z,100959.13
2018-01-30T01:49:58.621Z,100959.92
2018-01-30T01:52:27.057Z,100965.04
2018-01-30T01:54:55.453Z,100962.50
2018-01-30T01:57:23.897Z,100967.31
2018-01-30T01:59:52.290Z,100962.58
2018-01-30T02:02:20.684Z,100957.53
2018-01-30T02:04:49.143Z,100955.52
2018-01-30T02:07:17.549Z,100957.97
2018-01-30T02:09:45.965Z,100965.23
2018-01-30T02:12:14.401Z,100955.42
2018-01-30T02:14:42.832Z,100963.34
2018-01-30T02:17:11.268Z,100958.14
2018-01-30T02:19:39.745Z,100966.97
2018-01-30T02:22:08.189Z,100968.20
2018-01-30T02:24:36.600Z,100964.01
2018-01-30T02:27:05.072Z,100967.06
2018-01-30T02:29:33.469Z,100968.09
2018-01-30T02:32:01.867Z,100969.55
2018-01-30T02:34:30.322Z,100972.63
2018-01-30T02:36:58.755Z,100969.45
2018-01-30T02:39:27.153Z,100965.50
2018-01-30T02:41:55.604Z,100962.98
2018-01-30T02:44:24.006Z,100965.64
2018-01-30T02:46:52.400Z,100964.91
2018-01-30T02:49:20.840Z,100972.11
2018-01-30T02:51:49.246Z,100976.30
2018-01-30T02:54:17.659Z,100974.77
2018-01-30T02:56:46.090Z,100975.04
2018-01-30T02:59:14.504Z,100974.66
2018-01-30T03:01:42.930Z,100972.21
2018-01-30T03:04:11.426Z,100963.88
2018-01-30T03:06:39.874Z,100970.37
2018-01-30T03:09:08.286Z,100975.67
2018-01-30T03:11:36.763Z,100973.13
2018-01-30T03:14:05.174Z,100983.00
2018-01-30T03:16:33.573Z,100978.53
2018-01-30T03:19:02.050Z,100987.50
2018-01-30T03:21:30.454Z,100980.73
2018-01-30T03:23:58.844Z,100977.24
2018-01-30T03:26:27.316Z,100972.74
2018-01-30T03:28:55.705Z,100978.02
2018-01-30T03:31:24.117Z,100983.03
2018-01-30T03:33:52.608Z,100984.04
2018-01-30T03:36:21.014Z,100976.58
2018-01-30T03:38:49.414Z,100974.34
2018-01-30T03:41:17.900Z,100975.32
2018-01-30T03:43:46.324Z,100977.20
2018-01-30T03:46:14.748Z,100980.20
2018-01-30T03:48:43.203Z,100981.39
2018-01-30T03:51:11.837Z,100981.56
2018-01-30T03:53:40.241Z,100983.77
2018-01-30T03:56:08.711Z,100994.02
2018-01-30T03:58:37.144Z,100988.72
2018-01-30T04:01:05.577Z,100991.58
2018-01-30T04:03:34.029Z,100992.17
2018-01-30T04:06:02.436Z,100989.00
2018-01-30T04:08:30.906Z,100993.74
2018-01-30T04:10:59.393Z,100999.36
2018-01-30T04:13:27.835Z,100995.00
2018-01-30T04:15:56.275Z,100993.36
2018-01-30T04:18:24.745Z,100992.80
2018-01-30T04:20:53.186Z,100997.44
2018-01-30T04:23:21.626Z,100996.98
2018-01-30T04:25:50.143Z,100988.50
2018-01-30T04:28:18.563Z,100992.72
2018-01-30T04:30:47.004Z,100991.26
2018-01-30T04:33:15.474Z,100988.12
2018-01-30T04:35:43.903Z,100994.22
2018-01-30T04:38:12.315Z,100992.09
2018-01-30T04:40:40.751Z,101000.84
2018-01-30T04:43:09.162Z,101000.58
2018-01-30T04:45:37.566Z,101015.06
2018-01-30T04:48:06.012Z,101015.98
2018-01-30T04:50:34.401Z,101008.88
2018-01-30T04:53:02.815Z,101022.89
2018-01-30T04:55:31.274Z,101015.12
2018-01-30T04:58:00.056Z,101007.08
2018-01-30T05:00:28.476Z,101004.56
2018-01-30T05:02:56.922Z,101009.98
2018-01-30T05:05:25.341Z,101016.71
2018-01-30T05:07:53.739Z,101017.84
2018-01-30T05:10:22.197Z,101027.73
2018-01-30T05:12:50.660Z,101029.19
2018-01-30T05:15:19.083Z,101028.45
2018-01-30T05:17:47.557Z,101034.23
2018-01-30T05:20:15.967Z,101029.64
2018-01-30T05:22:44.387Z,101039.53
2018-01-30T05:25:12.821Z,101052.05
2018-01-30T05:27:41.218Z,101045.47
2018-01-30T05:30:09.618Z,101045.86
2018-01-30T05:32:38.053Z,101050.31
2018-01-30T05:35:06.477Z,101055.03
2018-01-30T05:37:34.884Z,101062.16
2018-01-30T05:40:03.352Z,101067.56
2018-01-30T05:42:31.765Z,101067.36
2018-01-30T05:45:00.174Z,101066.23
2018-01-30T05:47:28.630Z,101065.07
2018-01-30T05:49:57.064Z,101067.49
2018-01-30T05:52:25.491Z,101053.02
2018-01-30T05:54:53.955Z,101051.22
2018-01-30T05:57:22.369Z,101056.09
2018-01-30T05:59:50.757Z,101064.27
2018-01-30T06:02:19.199Z,101067.17
2018-01-30T06:04:47.613Z,101070.85
2018-01-30T06:07:16.052Z,101073.56
2018-01-30T06:09:44.519Z,101059.36
2018-01-30T06:12:12.922Z,101063.55
2018-01-30T06:14:41.318Z,101075.80
2018-01-30T06:17:09.778Z,101078.38
2018-01-30T06:19:38.172Z,101089.03
2018-01-30T06:22:06.586Z,101089.61
2018-01-30T06:24:35.021Z,101089.61
2018-01-30T06:27:03.426Z,101101.47
2018-01-30T06:29:31.835Z,101108.44
2018-01-30T06:32:00.265Z,101106.38
2018-01-30T06:34:28.674Z,101114.48
2018-01-30T06:36:57.077Z,101106.83
2018-01-30T06:39:25.538Z,101116.23
2018-01-30T06:41:53.965Z,101113.22
2018-01-30T06:44:22.355Z,101119.45
2018-01-30T06:46:50.819Z,101124.53
2018-01-30T06:49:19.262Z,101126.15
2018-01-30T06:51:47.692Z,101119.69
2018-01-30T06:54:16.153Z,101110.22
2018-01-30T06:56:44.555Z,101122.11
2018-01-30T06:59:12.954Z,101116.88
2018-01-30T07:01:41.758Z,101127.04
2018-01-30T07:04:10.158Z,101122.91
2018-01-30T07:06:38.560Z,101124.17
2018-01-30T07:09:07.016Z,101124.84
2018-01-30T07:11:35.406Z,101127.20
2018-01-30T07:14:03.809Z,101129.47
2018-01-30T07:16:32.290Z,101132.77
2018-01-30T07:19:00.709Z,101134.20
2018-01-30T07:21:29.111Z,101133.38
2018-01-30T07:23:57.550Z,101135.03
2018-01-30T07:26:25.951Z,101145.43
2018-01-30T07:28:54.346Z,101150.18
2018-01-30T07:31:22.817Z,101140.50
2018-01-30T07:33:51.206Z,101149.34
2018-01-30T07:36:19.612Z,101157.17
2018-01-30T07:38:48.081Z,101155.17
2018-01-30T07:41:16.507Z,101154.23
2018-01-30T07:43:44.909Z,101161.66
2018-01-30T07:46:13.389Z,101159.83
2018-01-30T07:48:41.790Z,101166.06
2018-01-30T07:51:10.231Z,101154.53
2018-01-30T07:53:38.674Z,101152.98
2018-01-30T07:56:07.104Z,101159.50
2018-01-30T07:58:35.502Z,101156.53
2018-01-30T08:01:03.976Z,101158.76
2018-01-30T08:03:32.362Z,101161.41
2018-01-30T08:06:00.807Z,101150.52
2018-01-30T08:08:29.311Z,101146.36
2018-01-30T08:10:57.761Z,101141.38
2018-01-30T08:13:26.251Z,101139.98
2018-01-30T08:15:54.717Z,101140.54
2018-01-30T08:18:23.129Z,101138.89
2018-01-30T08:20:51.554Z,101141.13
2018-01-30T08:23:19.996Z,101143.67
2018-01-30T08:25:48.419Z,101145.84
2018-01-30T08:28:16.845Z,101139.95
2018-01-30T08:30:45.909Z,101142.84
2018-01-30T08:33:14.317Z,101139.57
2018-01-30T08:35:42.740Z,101144.52
2018-01-30T08:38:11.214Z,101135.02
2018-01-30T08:40:39.651Z,101136.11
2018-01-30T08:43:08.070Z,101138.63
2018-01-30T08:45:36.536Z,101139.34
2018-01-30T08:48:04.937Z,101142.51
2018-01-30T08:50:33.377Z,101144.73
2018-01-30T08:53:01.837Z,101142.98
2018-01-30T08:55:30.256Z,101142.86
2018-01-30T08:57:58.649Z,101146.67
2018-01-30T09:00:27.128Z,101147.64
2018-01-30T09:02:55.521Z,101144.89
2018-01-30T09:05:23.934Z,101163.25
2018-01-30T09:07:52.366Z,101165.77
2018-01-30T09:10:20.765Z,101170.23
2018-01-30T09:12:49.167Z,101173.84
2018-01-30T09:15:17.623Z,101174.75
2018-01-30T09:17:46.171Z,101177.59
2018-01-30T09:20:14.565Z,101178.81
2018-01-30T09:22:43.031Z,101170.91
2018-01-30T09:25:11.433Z,101169.54
2018-01-30T09:27:39.868Z,101169.06
2018-01-30T09:30:08.314Z,101175.36
2018-01-30T09:32:36.722Z,101164.95
2018-01-30T09:35:05.154Z,101161.12
2018-01-30T09:37:33.599Z,101178.06
2018-01-30T09:40:02.032Z,101182.37
2018-01-30T09:42:30.439Z,101180.25
2018-01-30T09:44:58.888Z,101183.09
2018-01-30T09:47:27.273Z,101179.81
2018-01-30T09:49:55.675Z,101178.25
2018-01-30T09:52:24.151Z,101176.32
2018-01-30T09:54:52.576Z,101192.04
2018-01-30T09:57:20.986Z,101182.72
2018-01-30T09:59:49.439Z,101182.98
2018-01-30T10:02:17.895Z,101178.39
2018-01-30T10:04:46.328Z,101174.45
2018-01-30T10:07:14.825Z,101176.52
2018-01-30T10:09:43.288Z,101169.89
2018-01-30T10:12:11.706Z,101176.80
2018-01-30T10:14:40.147Z,101177.86
2018-01-30T10:17:08.562Z,101171.44
2018-01-30T10:19:36.958Z,101167.42
2018-01-30T10:22:05.404Z,101163.09
2018-01-30T10:24:33.814Z,101157.08
2018-01-30T10:27:02.216Z,101160.06
2018-01-30T10:29:30.818Z,101161.48
2018-01-30T10:31:59.242Z,101168.34
2018-01-30T10:34:27.675Z,101168.44
2018-01-30T10:36:56.146Z,101171.02
2018-01-30T10:39:24.545Z,101171.58
2018-01-30T10:41:52.945Z,101181.45
2018-01-30T10:44:21.537Z,101175.08
2018-01-30T10:46:49.937Z,101182.50
2018-01-30T10:49:18.331Z,101174.53
2018-01-30T10:51:46.810Z,101174.61
2018-01-30T10:54:15.244Z,101172.45
2018-01-30T10:56:43.683Z,101171.72
2018-01-30T10:59:12.159Z,101168.53
2018-01-30T11:01:40.569Z,101172.72
2018-01-30T11:04:09.870Z,101169.61
2018-01-30T11:06:38.351Z,101170.06
2018-01-30T11:09:06.763Z,101173.59
2018-01-30T11:11:35.174Z,101179.68
2018-01-30T11:14:03.638Z,101175.34
2018-01-30T11:16:32.039Z,101174.16
2018-01-30T11:19:00.456Z,101192.37
2018-01-30T11:21:29.079Z,101188.59
2018-01-30T11:23:57.495Z,101188.77
2018-01-30T11:26:25.897Z,101191.07
2018-01-30T11:28:54.420Z,101195.30
2018-01-30T11:31:22.834Z,101194.73
2018-01-30T11:33:51.341Z,101194.78
2018-01-30T11:36:19.788Z,101195.64
2018-01-30T11:38:48.206Z,101198.12
2018-01-30T11:41:16.617Z,101188.20
2018-01-30T11:43:45.074Z,101189.92
2018-01-30T11:46:13.496Z,101181.53
2018-01-30T11:48:41.897Z,101181.43
2018-01-30T11:51:10.332Z,101174.52
2018-01-30T11:53:38.745Z,101168.47
2018-01-30T11:56:07.145Z,101173.64
2018-01-30T11:58:35.595Z,101163.30
2018-01-30T12:01:04.014Z,101165.22
2018-01-30T12:03:32.407Z,101168.15
2018-01-30T12:06:00.861Z,101159.56
2018-01-30T12:08:29.266Z,101153.80
2018-01-30T12:10:57.896Z,101154.98
2018-01-30T12:13:26.591Z,101160.56
2018-01-30T12:15:55.002Z,101148.44
2018-01-30T12:18:23.403Z,101158.54
2018-01-30T12:20:51.840Z,101151.82
2018-01-30T12:23:20.306Z,101149.63
2018-01-30T12:25:48.710Z,101143.54
2018-01-30T12:28:17.933Z,101151.67
2018-01-30T12:30:46.329Z,101146.11
2018-01-30T12:33:14.722Z,101141.11
2018-01-30T12:35:43.720Z,101132.05
2018-01-30T12:38:12.137Z,101128.66
2018-01-30T12:40:40.578Z,101121.74
2018-01-30T12:43:09.186Z,101122.29
2018-01-30T12:45:37.585Z,101123.98
2018-01-30T12:48:07.012Z,101116.88
2018-01-30T12:50:35.445Z,101109.98
2018-01-30T12:53:03.844Z,101109.42
2018-01-30T12:55:32.263Z,101105.22
2018-01-30T12:58:01.094Z,101104.84
2018-01-30T13:00:29.525Z,101101.16
2018-01-30T13:02:57.945Z,101099.27
2018-01-30T13:05:26.389Z,101095.69
2018-01-30T13:07:54.786Z,101085.48
2018-01-30T13:10:23.224Z,101092.47
2018-01-30T13:12:51.690Z,101086.56
2018-01-30T13:15:20.113Z,101080.54
2018-01-30T13:17:48.524Z,101085.22
2018-01-30T13:20:17.005Z,101082.34
2018-01-30T13:22:45.415Z,101078.59
2018-01-30T13:25:13.857Z,101074.81
2018-01-30T13:27:42.305Z,101068.86
2018-01-30T13:30:10.729Z,101064.46
2018-01-30T13:32:39.280Z,101066.20
2018-01-30T13:35:07.766Z,101064.79
2018-01-30T13:37:36.192Z,101070.33
2018-01-30T13:40:04.627Z,101049.68
2018-01-30T13:42:33.108Z,101051.39
2018-01-30T13:45:01.555Z,101051.48
2018-01-30T13:47:29.975Z,101044.83
2018-01-30T13:49:58.453Z,101048.17
2018-01-30T13:52:26.857Z,101038.03
2018-01-30T13:54:55.277Z,101043.92
2018-01-30T13:57:23.768Z,101050.56
2018-01-30T13:59:52.182Z,101051.59
2018-01-30T14:02:20.589Z,101045.42
2018-01-30T14:04:49.066Z,101056.96
2018-01-30T14:07:17.464Z,101056.41
2018-01-30T14:09:45.872Z,101048.08
2018-01-30T14:12:14.342Z,101047.17
2018-01-30T14:14:42.748Z,101042.91
2018-01-30T14:17:11.148Z,101050.27
2018-01-30T14:19:39.597Z,101050.02
2018-01-30T14:22:08.030Z,101044.47
2018-01-30T14:24:36.443Z,101048.03
2018-01-30T14:27:04.898Z,101052.47
2018-01-30T14:29:33.313Z,101040.09
2018-01-30T14:32:01.791Z,101032.84
2018-01-30T14:34:30.218Z,101041.70
2018-01-30T14:36:58.642Z,101038.78
2018-01-30T14:39:27.054Z,101042.92
2018-01-30T14:41:55.512Z,101031.61
2018-01-30T14:44:23.918Z,101026.64
2018-01-30T14:46:52.340Z,101028.84
2018-01-30T14:49:20.784Z,101032.34
2018-01-30T14:51:49.445Z,101022.22
2018-01-30T14:54:17.854Z,101018.50
2018-01-30T14:56:46.318Z,101024.27
2018-01-30T14:59:14.741Z,101019.39
2018-01-30T15:01:43.156Z,101021.78
2018-01-30T15:04:11.610Z,101018.52
2018-01-30T15:06:40.008Z,101013.20
2018-01-30T15:09:08.410Z,101008.53
2018-01-30T15:11:36.844Z,101014.50
2018-01-30T15:14:05.254Z,101016.77
2018-01-30T15:16:33.668Z,101012.93
2018-01-30T15:19:02.174Z,101011.27
2018-01-30T15:21:30.578Z,101010.48
2018-01-30T15:23:59.000Z,101010.06
2018-01-30T15:26:27.680Z,101000.81
2018-01-30T15:28:56.104Z,100998.61
2018-01-30T15:31:24.508Z,100998.75
2018-01-30T15:33:53.005Z,100990.66
2018-01-30T15:36:21.653Z,100990.13
2018-01-30T15:38:50.202Z,100986.92
2018-01-30T15:41:18.672Z,100983.97
2018-01-30T15:43:47.174Z,100984.57
2018-01-30T15:46:15.581Z,100985.34
2018-01-30T15:48:44.064Z,100975.25
2018-01-30T15:51:12.461Z,100968.10
2018-01-30T15:53:40.881Z,100971.00
2018-01-30T15:56:09.390Z,100970.41
2018-01-30T15:58:37.794Z,100963.21
2018-01-30T16:01:06.203Z,100966.66
2018-01-30T16:03:34.667Z,100963.34
2018-01-30T16:06:03.425Z,100959.16
2018-01-30T16:08:31.824Z,100952.59
2018-01-30T16:11:00.293Z,100955.48
2018-01-30T16:13:28.794Z,100956.02
2018-01-30T16:15:57.198Z,100952.42
2018-01-30T16:18:25.674Z,100950.77
2018-01-30T16:20:54.119Z,100939.13
2018-01-30T16:23:22.563Z,100936.78
2018-01-30T16:25:51.039Z,100934.09
2018-01-30T16:28:19.465Z,100930.39
2018-01-30T16:30:47.911Z,100933.97
2018-01-30T16:33:16.395Z,100933.03
2018-01-30T16:35:44.826Z,100928.78
2018-01-30T16:38:20.318Z,100918.42
2018-01-30T16:40:48.748Z,100913.81
2018-01-30T16:43:17.186Z,100909.06
2018-01-30T16:45:45.637Z,100908.88
2018-01-30T16:48:14.069Z,100908.13
2018-01-30T16:50:42.487Z,100895.39
2018-01-30T16:53:10.992Z,100900.47
2018-01-30T16:55:39.408Z,100901.08
2018-01-30T16:58:07.822Z,100901.02
2018-01-30T17:00:36.294Z,100904.89
2018-01-30T17:03:04.744Z,100900.12
2018-01-30T17:05:33.182Z,100898.55
2018-01-30T17:08:01.657Z,100894.08
2018-01-30T17:10:30.068Z,100896.97
2018-01-30T17:12:58.489Z,100892.75
2018-01-30T17:15:26.946Z,100883.81
2018-01-30T17:17:55.342Z,100876.68
2018-01-30T17:20:23.771Z,100883.40
2018-01-30T17:22:52.234Z,100876.08
2018-01-30T17:25:20.681Z,100873.94
2018-01-30T17:27:49.626Z,100859.91
2018-01-30T17:30:18.098Z,100856.52
2018-01-30T17:32:46.587Z,100850.17
2018-01-30T17:35:14.991Z,100848.02
2018-01-30T17:37:43.456Z,100843.28
2018-01-30T17:40:11.908Z,100845.19
2018-01-30T17:42:40.968Z,100841.22
2018-01-30T17:45:09.430Z,100842.67
2018-01-30T17:47:37.842Z,100839.73
2018-01-30T17:50:06.313Z,100840.09
2018-01-30T17:52:34.734Z,100834.58
2018-01-30T17:55:03.142Z,100836.25
2018-01-30T17:57:31.570Z,100840.09
2018-01-30T18:00:00.220Z,100839.66
2018-01-30T18:02:28.906Z,100835.77
2018-01-30T18:04:57.353Z,100833.77
2018-01-30T18:07:25.839Z,100840.52
2018-01-30T18:09:54.282Z,100835.38
2018-01-30T18:12:22.700Z,100837.42
2018-01-30T18:14:51.186Z,100836.74
2018-01-30T18:17:19.601Z,100837.84
2018-01-30T18:19:48.007Z,100839.36
2018-01-30T18:22:16.460Z,100844.83
2018-01-30T18:24:44.861Z,100846.09
2018-01-30T18:27:13.266Z,100836.70
2018-01-30T18:29:41.726Z,100841.16
2018-01-30T18:32:10.144Z,100833.77
2018-01-30T18:34:38.578Z,100830.20
2018-01-30T18:37:07.035Z,100837.00
2018-01-30T18:39:35.578Z,100829.97
2018-01-30T18:42:04.006Z,100832.71
2018-01-30T18:44:32.512Z,100827.23
2018-01-30T18:47:00.925Z,100832.84
2018-01-30T18:49:29.337Z,100831.61
2018-01-30T18:51:57.864Z,100832.23
2018-01-30T18:54:26.275Z,100829.33
2018-01-30T18:56:54.703Z,100829.52
2018-01-30T18:59:23.152Z,100831.61
2018-01-30T19:01:51.586Z,100831.16
2018-01-30T19:04:20.003Z,100830.22
2018-01-30T19:06:48.582Z,100823.61
2018-01-30T19:09:19.182Z,100823.64
2018-01-30T19:11:47.611Z,100821.71
2018-01-30T19:14:16.055Z,100815.88
2018-01-30T19:16:44.466Z,100814.66
2018-01-30T19:19:12.885Z,100810.95
2018-01-30T19:21:41.397Z,100812.33
2018-01-30T19:24:09.842Z,100810.55
2018-01-30T19:26:38.286Z,100801.79
2018-01-30T19:29:06.753Z,100801.88
2018-01-30T19:31:35.191Z,100803.66
2018-01-30T19:34:03.600Z,100802.23
2018-01-30T19:36:32.251Z,100796.20
2018-01-30T19:39:00.660Z,100795.15
2018-01-30T19:41:29.072Z,100790.31
2018-01-30T19:43:57.560Z,100788.54
2018-01-30T19:46:25.960Z,100784.89
2018-01-30T19:48:54.361Z,100781.90
2018-01-30T19:51:22.803Z,100772.32
2018-01-30T19:53:51.210Z,100763.97
2018-01-30T19:56:19.666Z,100755.17
2018-01-30T19:58:48.187Z,100758.95
2018-01-30T20:01:16.608Z,100756.14
2018-01-30T20:03:45.035Z,100751.31
2018-01-30T20:06:13.662Z,100740.44
2018-01-30T20:08:42.090Z,100729.67
2018-01-30T20:11:10.498Z,100735.16
2018-01-30T20:13:38.981Z,100728.45
2018-01-30T20:16:07.388Z,100727.41
2018-01-30T20:18:35.827Z,100725.92
2018-01-30T20:21:04.297Z,100718.31
2018-01-30T20:23:32.731Z,100710.84
2018-01-30T20:26:01.132Z,100715.25
2018-01-30T20:28:29.637Z,100710.09
2018-01-30T20:30:58.043Z,100714.97
2018-01-30T20:33:26.451Z,100709.24
2018-01-30T20:35:54.903Z,100702.50
2018-01-30T20:38:23.354Z,100699.48
2018-01-30T20:40:51.761Z,100697.42
2018-01-30T20:43:20.244Z,100702.27
2018-01-30T20:45:48.665Z,100701.27
2018-01-30T20:48:17.179Z,100693.70
2018-01-30T20:50:45.650Z,100688.89
2018-01-30T20:53:14.100Z,100688.97
2018-01-30T20:55:42.510Z,100683.37
2018-01-30T20:58:10.977Z,100679.42
2018-01-30T21:00:39.400Z,100678.78
2018-01-30T21:03:07.835Z,100678.56
2018-01-30T21:05:36.330Z,100672.70
2018-01-30T21:08:04.769Z,100674.64
2018-01-30T21:10:33.183Z,100676.67
2018-01-30T21:13:01.650Z,100675.58
2018-01-30T21:15:30.091Z,100675.74
2018-01-30T21:17:58.491Z,100678.73
2018-01-30T21:20:26.915Z,100676.80
2018-01-30T21:22:55.354Z,100675.34
2018-01-30T21:25:23.786Z,100667.19
2018-01-30T21:27:52.225Z,100665.23
2018-01-30T21:30:20.641Z,100659.39
2018-01-30T21:32:49.049Z,100655.91
2018-01-30T21:35:17.661Z,100656.56
2018-01-30T21:37:46.066Z,100650.66
2018-01-30T21:40:14.469Z,100655.01
2018-01-30T21:42:42.925Z,100645.00
2018-01-30T21:45:11.362Z,100647.78
2018-01-30T21:47:39.768Z,100637.13
2018-01-30T21:50:08.233Z,100636.91
2018-01-30T21:52:36.717Z,100639.91
2018-01-30T21:55:05.126Z,100636.33
2018-01-30T21:57:33.585Z,100634.34
2018-01-30T22:00:01.986Z,100626.55
2018-01-30T22:02:30.463Z,100621.64
2018-01-30T22:04:58.950Z,100611.97
2018-01-30T22:07:27.360Z,100609.89
2018-01-30T22:09:55.779Z,100603.08
2018-01-30T22:12:24.241Z,100595.58
2018-01-30T22:14:52.678Z,100594.15
2018-01-30T22:17:21.082Z,100586.18
2018-01-30T22:19:49.541Z,100585.38
2018-01-30T22:22:17.957Z,100570.32
2018-01-30T22:24:46.372Z,100567.02
2018-01-30T22:27:14.809Z,100559.55
2018-01-30T22:29:43.257Z,100552.17
2018-01-30T22:32:11.660Z,100548.06
2018-01-30T22:34:40.110Z,100548.41
2018-01-30T22:37:08.522Z,100544.44
2018-01-30T22:39:36.957Z,100541.97
2018-01-30T22:42:05.390Z,100530.01
2018-01-30T22:44:33.777Z,100530.25
2018-01-30T22:47:02.200Z,100530.49
